Time;durP1;ratioP1;P1;durP2;ratioP2;P2;SDS_P1;SDS_P2;PMS_P1;PMS_P2;Temp;Humidity;BMP_temperature;BMP_pressure;BME280_temperature;BME280_humidity;BME280_pressure;Samples;Min_cycle;Max_cycle;Signal;HPM_P1;HPM_P2
2023/04/15 00:00:23;;;;;;;34.43;3.70;;;;;;;11.49;72.83;99871.00;4960572;28;20031;-71
2023/04/15 00:02:48;;;;;;;30.83;4.30;;;;;;;11.42;72.85;99870.19;4972747;28;20061;-71
2023/04/15 00:05:15;;;;;;;34.73;4.13;;;;;;;11.41;72.74;99880.78;4963880;28;20034;-71
2023/04/15 00:07:40;;;;;;;34.65;4.13;;;;;;;11.40;72.72;99869.34;4967496;28;20023;-71
2023/04/15 00:10:06;;;;;;;27.63;3.90;;;;;;;11.37;72.83;99866.75;4979673;28;20444;-71
2023/04/15 00:12:32;;;;;;;28.55;3.72;;;;;;;11.34;72.75;99870.34;4978599;28;20042;-71
2023/04/15 00:14:57;;;;;;;35.53;3.80;;;;;;;11.32;73.05;99873.88;4979425;28;20031;-72
2023/04/15 00:17:23;;;;;;;25.92;3.55;;;;;;;11.31;73.11;99882.66;4966905;28;20078;-72
2023/04/15 00:19:48;;;;;;;35.53;3.93;;;;;;;11.32;73.35;99887.03;4960237;28;20031;-71
2023/04/15 00:22:14;;;;;;;27.93;4.30;;;;;;;11.31;73.43;99888.78;4962876;28;20050;-71
2023/04/15 00:24:39;;;;;;;33.13;3.87;;;;;;;11.31;73.01;99893.22;4960240;28;20102;-71
2023/04/15 00:27:05;;;;;;;34.40;3.88;;;;;;;11.29;73.17;99876.56;4961621;28;20026;-71
2023/04/15 00:29:30;;;;;;;34.10;3.80;;;;;;;11.30;73.11;99876.50;4975204;28;20031;-72
2023/04/15 00:31:56;;;;;;;28.83;3.97;;;;;;;11.28;73.25;99885.34;4959929;28;20061;-71
2023/04/15 00:34:22;;;;;;;32.65;3.47;;;;;;;11.29;73.29;99876.56;4959940;28;20035;-72
2023/04/15 00:36:49;;;;;;;32.17;3.43;;;;;;;11.30;73.41;99888.84;4960412;28;20035;-71
2023/04/15 00:39:15;;;;;;;34.45;4.45;;;;;;;11.29;73.62;99873.91;4960370;28;20025;-71
2023/04/15 00:41:42;;;;;;;32.25;4.18;;;;;;;11.30;73.23;99875.66;4979051;28;20081;-71
2023/04/15 00:44:08;;;;;;;27.38;3.75;;;;;;;11.33;73.40;99880.88;4959292;28;20511;-71
2023/04/15 00:46:38;;;;;;;25.10;3.90;;;;;;;11.33;73.81;99881.78;4959949;28;20031;-71
2023/04/15 00:49:05;;;;;;;27.77;3.38;;;;;;;11.36;73.48;99875.56;4959569;28;20031;-72
2023/04/15 00:51:32;;;;;;;29.48;3.60;;;;;;;11.35;73.83;99881.72;4958177;28;20055;-71
2023/04/15 00:54:02;;;;;;;38.08;5.03;;;;;;;11.31;74.42;99877.41;4966276;28;20034;-71
2023/04/15 00:56:28;;;;;;;25.75;3.50;;;;;;;11.28;74.75;99874.81;4977824;28;20467;-71
2023/04/15 00:58:54;;;;;;;39.50;5.20;;;;;;;11.24;75.05;99873.97;4979073;28;20098;-71
2023/04/15 01:01:21;;;;;;;32.90;3.73;;;;;;;11.24;75.53;99881.00;4978533;28;20034;-71
2023/04/15 01:03:49;;;;;;;36.53;4.72;;;;;;;11.22;75.54;99883.66;4958228;28;20027;-72
2023/04/15 01:06:14;;;;;;;34.28;3.78;;;;;;;11.20;75.32;99865.22;4965933;28;20506;-71
2023/04/15 01:08:40;;;;;;;31.97;4.23;;;;;;;11.21;75.31;99876.66;4978388;28;20027;-71
2023/04/15 01:11:06;;;;;;;30.67;3.43;;;;;;;11.18;75.46;99879.31;4978236;28;20274;-71
2023/04/15 01:13:33;;;;;;;30.20;4.28;;;;;;;11.17;75.26;99883.72;4977407;28;20073;-72
2023/04/15 01:15:59;;;;;;;36.08;4.50;;;;;;;11.14;74.97;99883.75;4976623;28;20055;-71
2023/04/15 01:18:25;;;;;;;33.50;3.80;;;;;;;11.12;75.47;99885.53;4966040;28;20031;-72
2023/04/15 01:20:51;;;;;;;35.70;4.30;;;;;;;11.10;74.91;99891.72;4957797;28;20444;-71
2023/04/15 01:23:16;;;;;;;33.03;5.37;;;;;;;11.07;74.79;99887.38;4957830;28;20407;-71
2023/04/15 01:25:43;;;;;;;32.35;3.97;;;;;;;11.08;74.87;99888.22;4958839;28;20039;-71
2023/04/15 01:28:09;;;;;;;37.47;4.47;;;;;;;11.07;74.90;99890.00;4968983;28;20039;-71
2023/04/15 01:30:35;;;;;;;27.35;3.53;;;;;;;11.05;74.74;99886.50;4965740;28;20042;-71
2023/04/15 01:33:00;;;;;;;24.93;3.60;;;;;;;11.05;74.48;99891.78;4959148;28;20035;-71
2023/04/15 01:35:26;;;;;;;23.37;3.33;;;;;;;11.09;74.29;99884.69;4957689;28;20142;-72
2023/04/15 01:37:53;;;;;;;27.52;2.92;;;;;;;11.10;74.20;99881.19;4958872;28;20030;-72
2023/04/15 01:40:18;;;;;;;33.08;4.18;;;;;;;11.11;74.47;99883.78;4967606;28;20031;-71
2023/04/15 01:42:44;;;;;;;32.30;3.40;;;;;;;11.12;74.23;99887.31;4970242;28;20559;-71
2023/04/15 01:45:10;;;;;;;32.35;3.47;;;;;;;11.15;74.36;99887.28;4958815;28;20024;-71
2023/04/15 01:47:35;;;;;;;33.43;3.83;;;;;;;11.16;74.02;99886.38;4959016;28;20036;-71
2023/04/15 01:50:01;;;;;;;26.50;3.17;;;;;;;11.19;74.17;99903.00;4957577;28;20102;-71
2023/04/15 01:52:26;;;;;;;37.50;4.57;;;;;;;11.18;74.48;99914.44;4958955;28;20035;-71
2023/04/15 01:54:51;;;;;;;27.23;2.93;;;;;;;11.13;75.12;99910.13;4958487;28;20027;-71
2023/04/15 01:57:17;;;;;;;25.80;3.33;;;;;;;11.08;75.46;99910.19;4958941;28;20069;-71
2023/04/15 01:59:42;;;;;;;25.50;4.27;;;;;;;11.04;75.36;99908.47;4958639;28;20031;-71
2023/04/15 02:02:07;;;;;;;22.63;2.60;;;;;;;10.99;75.99;99920.84;4964125;28;20117;-71
2023/04/15 02:04:33;;;;;;;19.40;2.58;;;;;;;10.91;75.92;99913.03;4977933;28;20475;-71
2023/04/15 02:06:59;;;;;;;19.80;2.47;;;;;;;10.83;75.77;99906.94;4977931;28;20380;-71
2023/04/15 02:09:24;;;;;;;16.23;1.92;;;;;;;10.81;75.54;99909.63;4977819;28;20073;-71
2023/04/15 02:11:52;;;;;;;17.70;2.13;;;;;;;10.74;75.21;99907.94;4977925;28;20058;-71
2023/04/15 02:14:17;;;;;;;11.98;1.60;;;;;;;10.64;74.87;99909.78;4976978;28;20031;-71
2023/04/15 02:16:43;;;;;;;18.67;1.60;;;;;;;10.55;75.20;99902.84;4966183;28;20046;-71
2023/04/15 02:19:08;;;;;;;16.00;1.80;;;;;;;10.55;75.68;99897.59;4977831;28;20105;-71
2023/04/15 02:21:34;;;;;;;13.77;1.30;;;;;;;10.55;75.65;99897.59;4977867;28;20037;-71
2023/04/15 02:24:01;;;;;;;16.63;1.65;;;;;;;10.55;75.75;99902.84;4976451;28;20035;-72
2023/04/15 02:26:26;;;;;;;17.65;2.08;;;;;;;10.56;75.71;99904.59;4977868;28;20055;-71
2023/04/15 02:28:52;;;;;;;17.20;1.87;;;;;;;10.58;76.02;99899.31;4973667;28;20031;-71
2023/04/15 02:31:17;;;;;;;18.50;2.20;;;;;;;10.58;75.54;99907.19;4959602;28;20050;-71
2023/04/15 02:33:43;;;;;;;22.23;2.28;;;;;;;10.56;76.18;99906.34;4958279;28;20059;-71
2023/04/15 02:36:10;;;;;;;21.27;3.10;;;;;;;10.57;76.07;99906.34;4958470;28;20126;-71
2023/04/15 02:38:37;;;;;;;21.02;2.38;;;;;;;10.59;75.56;99901.94;4958332;28;20106;-72
2023/04/15 02:41:02;;;;;;;25.77;2.70;;;;;;;10.60;76.16;99900.16;4973079;28;20039;-71
2023/04/15 02:43:27;;;;;;;31.73;3.80;;;;;;;10.62;76.12;99893.16;4962681;28;20063;-71
2023/04/15 02:45:53;;;;;;;22.80;3.13;;;;;;;10.64;75.84;99899.25;4958352;28;20097;-71
2023/04/15 02:48:19;;;;;;;29.07;2.83;;;;;;;10.68;75.67;99913.25;4958357;28;20394;-71
2023/04/15 02:50:45;;;;;;;23.25;2.65;;;;;;;10.69;76.05;99925.53;4958360;28;20054;-72
2023/04/15 02:53:12;;;;;;;19.23;2.85;;;;;;;10.72;76.21;99930.75;4958308;28;20042;-71
2023/04/15 02:55:37;;;;;;;24.77;3.47;;;;;;;10.74;76.18;99918.47;4958042;28;20031;-71
2023/04/15 02:58:03;;;;;;;25.03;3.00;;;;;;;10.76;76.28;99930.72;4959105;28;20526;-71
2023/04/15 03:00:29;;;;;;;29.20;3.80;;;;;;;10.77;76.20;99929.84;4977420;28;20109;-71
2023/04/15 03:03:04;;;;;;;24.35;2.65;;;;;;;10.76;76.92;99930.72;4964612;28;20439;-71
2023/04/15 03:05:29;;;;;;;25.02;3.13;;;;;;;10.76;76.83;99922.81;4958172;28;20063;-71
2023/04/15 03:07:55;;;;;;;23.90;3.20;;;;;;;10.77;76.71;99927.19;4971065;28;20055;-71
2023/04/15 03:10:20;;;;;;;28.50;2.63;;;;;;;10.75;77.21;99925.50;4968588;28;20031;-71
2023/04/15 03:12:46;;;;;;;31.17;3.20;;;;;;;10.75;77.29;99921.06;4958395;28;20091;-72
2023/04/15 03:15:12;;;;;;;29.08;3.40;;;;;;;10.76;77.18;99921.97;4961319;28;20035;-71
2023/04/15 03:17:37;;;;;;;24.00;2.73;;;;;;;10.74;77.50;99923.75;4973046;28;20062;-71
2023/04/15 03:20:04;;;;;;;25.93;3.93;;;;;;;10.74;77.79;99923.75;4961615;28;20027;-71
2023/04/15 03:22:30;;;;;;;32.72;3.97;;;;;;;10.73;77.82;99924.59;4960078;28;20110;-71
2023/04/15 03:24:56;;;;;;;29.23;3.05;;;;;;;10.71;77.90;99906.19;4961384;28;20054;-71
2023/04/15 03:27:22;;;;;;;20.23;2.20;;;;;;;10.72;77.49;99904.41;4964908;28;20023;-71
2023/04/15 03:29:47;;;;;;;24.67;2.95;;;;;;;10.70;77.25;99907.09;4974237;28;20106;-71
2023/04/15 03:32:14;;;;;;;20.57;3.00;;;;;;;10.68;77.04;99902.72;4961112;28;20035;-71
2023/04/15 03:34:40;;;;;;;16.15;1.50;;;;;;;10.68;76.72;99907.97;4961391;28;20035;-71
2023/04/15 03:37:06;;;;;;;15.17;1.77;;;;;;;10.70;76.62;99900.94;4960958;28;20031;-71
2023/04/15 03:39:32;;;;;;;9.88;1.30;;;;;;;10.69;76.41;99904.47;4963943;28;20023;-71
2023/04/15 03:41:58;;;;;;;13.53;1.50;;;;;;;10.67;76.72;99911.50;4976956;28;20039;-72
2023/04/15 03:44:25;;;;;;;13.73;1.45;;;;;;;10.65;76.39;99908.03;4961150;28;20038;-71
2023/04/15 03:46:50;;;;;;;14.30;1.35;;;;;;;10.62;76.29;99909.78;4960806;28;20046;-72
2023/04/15 03:49:16;;;;;;;14.23;1.40;;;;;;;10.60;76.50;99915.94;4959776;28;20027;-71
2023/04/15 03:51:41;;;;;;;12.97;1.43;;;;;;;10.58;76.01;99912.47;4959413;28;20494;-71
2023/04/15 03:54:07;;;;;;;16.48;2.45;;;;;;;10.54;76.00;99916.03;4960989;28;20031;-71
2023/04/15 03:56:32;;;;;;;16.77;1.73;;;;;;;10.49;75.96;99926.63;4979432;28;20035;-71
2023/04/15 03:58:57;;;;;;;14.90;1.80;;;;;;;10.46;76.56;99921.34;4978838;28;20041;-72
2023/04/15 04:01:23;;;;;;;17.67;1.60;;;;;;;10.45;76.04;99930.13;4979065;28;20081;-72
2023/04/15 04:03:48;;;;;;;13.07;1.67;;;;;;;10.42;75.76;99930.16;4960868;28;20031;-71
2023/04/15 04:06:14;;;;;;;12.37;1.50;;;;;;;10.41;76.12;99931.06;4966295;28;20043;-71
2023/04/15 04:08:40;;;;;;;20.53;1.70;;;;;;;10.39;75.74;99933.69;4978368;28;20290;-71
2023/04/15 04:11:05;;;;;;;16.83;2.05;;;;;;;10.39;75.90;99944.22;4979749;28;20073;-71
2023/04/15 04:13:31;;;;;;;24.10;2.80;;;;;;;10.38;75.66;99936.31;4980035;28;20490;-72
2023/04/15 04:15:56;;;;;;;23.30;2.00;;;;;;;10.39;75.71;99932.81;4978108;28;20058;-71
2023/04/15 04:18:22;;;;;;;16.88;2.10;;;;;;;10.38;75.60;99938.94;4960696;28;20035;-71
2023/04/15 04:20:47;;;;;;;13.53;1.57;;;;;;;10.33;75.85;99931.09;4960682;28;20114;-71
2023/04/15 04:23:12;;;;;;;17.33;2.30;;;;;;;10.36;75.85;99932.84;4960432;28;20432;-71
2023/04/15 04:25:38;;;;;;;18.23;2.00;;;;;;;10.34;75.40;99935.47;4959153;28;20581;-71
2023/04/15 04:28:03;;;;;;;21.10;2.10;;;;;;;10.32;75.36;99932.88;4969561;28;20058;-72
2023/04/15 04:30:29;;;;;;;17.05;2.13;;;;;;;10.28;75.45;99936.41;4966354;28;20041;-71
2023/04/15 04:32:54;;;;;;;18.83;2.30;;;;;;;10.27;75.67;99939.94;4960135;28;20054;-71
2023/04/15 04:35:20;;;;;;;18.57;1.77;;;;;;;10.25;75.73;99941.69;4960395;28;20019;-71
2023/04/15 04:37:46;;;;;;;19.58;2.60;;;;;;;10.24;75.71;99945.19;4958809;28;20440;-72
2023/04/15 04:40:12;;;;;;;15.67;1.67;;;;;;;10.20;75.62;99948.72;4966624;28;20042;-71
2023/04/15 04:42:37;;;;;;;21.75;2.33;;;;;;;10.20;75.64;99944.34;4973298;28;20035;-71
2023/04/15 04:45:02;;;;;;;19.20;2.03;;;;;;;10.19;75.95;99944.34;4959995;28;20093;-71
2023/04/15 04:47:29;;;;;;;13.73;1.80;;;;;;;10.23;75.54;99947.84;4959759;28;20042;-72
2023/04/15 04:49:54;;;;;;;16.60;2.40;;;;;;;10.25;76.47;99959.25;4960011;28;20258;-71
2023/04/15 04:52:19;;;;;;;19.17;2.20;;;;;;;10.28;76.13;99960.09;4975230;28;20376;-71
2023/04/15 04:54:46;;;;;;;13.90;1.70;;;;;;;10.30;75.96;99957.44;4979031;28;20035;-71
2023/04/15 04:57:12;;;;;;;16.88;1.85;;;;;;;10.33;75.48;99971.44;4979120;28;20031;-71
2023/04/15 04:59:38;;;;;;;16.47;1.87;;;;;;;10.35;75.86;99968.78;4979042;28;20395;-71
2023/04/15 05:02:03;;;;;;;14.52;1.73;;;;;;;10.36;75.65;99969.69;4974957;28;20023;-71
2023/04/15 05:04:30;;;;;;;18.53;2.30;;;;;;;10.37;75.40;99966.16;4965414;28;20031;-71
2023/04/15 05:06:55;;;;;;;15.68;2.20;;;;;;;10.36;75.50;99969.69;4964733;28;20030;-71
2023/04/15 05:09:21;;;;;;;17.20;1.60;;;;;;;10.38;75.66;99967.91;4978870;28;20027;-71
2023/04/15 05:11:46;;;;;;;15.10;2.63;;;;;;;10.37;75.76;99977.56;4978523;28;20093;-71
2023/04/15 05:14:11;;;;;;;14.33;1.40;;;;;;;10.42;75.47;99982.81;4978922;28;20049;-71
2023/04/15 05:16:37;;;;;;;14.75;1.65;;;;;;;10.42;75.69;99978.44;4971780;28;20062;-71
2023/04/15 05:19:02;;;;;;;16.67;1.40;;;;;;;10.44;75.64;99988.94;4958097;28;20113;-71
2023/04/15 05:21:27;;;;;;;14.93;1.67;;;;;;;10.44;75.67;99986.31;4958059;28;20042;-71
2023/04/15 05:23:53;;;;;;;21.07;2.07;;;;;;;10.46;75.35;99987.16;4959390;28;20031;-72
2023/04/15 05:26:18;;;;;;;17.50;2.70;;;;;;;10.48;75.30;99998.56;4959048;28;20031;-71
2023/04/15 05:28:44;;;;;;;13.13;1.05;;;;;;;10.48;75.92;100002.06;4973850;28;20085;-71
2023/04/15 05:31:09;;;;;;;15.67;1.10;;;;;;;10.50;75.70;99998.56;4961298;28;20054;-72
2023/04/15 05:33:35;;;;;;;12.97;1.20;;;;;;;10.51;75.30;100005.56;4959424;28;20031;-71
2023/04/15 05:36:01;;;;;;;16.95;1.17;;;;;;;10.53;75.56;100017.84;4958726;28;20038;-71
2023/04/15 05:38:26;;;;;;;13.60;1.43;;;;;;;10.50;76.08;100009.97;4959344;28;20031;-71
2023/04/15 05:40:51;;;;;;;12.87;1.77;;;;;;;10.50;75.94;100012.59;4972296;28;20023;-71
2023/04/15 05:43:17;;;;;;;11.87;1.23;;;;;;;10.49;76.20;100013.50;4966719;28;20031;-72
2023/04/15 05:45:42;;;;;;;13.60;1.15;;;;;;;10.49;76.51;100018.75;4957568;28;20031;-71
2023/04/15 05:48:08;;;;;;;20.27;1.70;;;;;;;10.46;76.37;100014.38;4970563;28;20110;-71
2023/04/15 05:50:33;;;;;;;15.17;1.40;;;;;;;10.48;76.50;100022.25;4978172;28;20394;-72
2023/04/15 05:52:59;;;;;;;13.53;1.07;;;;;;;10.47;76.77;100024.03;4978412;28;20066;-71
2023/04/15 05:55:25;;;;;;;12.30;1.30;;;;;;;10.45;77.13;100028.44;4977944;28;20054;-72
2023/04/15 05:57:51;;;;;;;13.95;1.60;;;;;;;10.43;77.34;100029.31;4977926;28;20031;-71
2023/04/15 06:00:16;;;;;;;10.57;1.10;;;;;;;10.43;77.19;100024.94;4958682;28;20031;-72
2023/04/15 06:02:42;;;;;;;14.65;1.75;;;;;;;10.45;77.57;100043.34;4970232;28;20042;-71
2023/04/15 06:05:08;;;;;;;13.57;1.30;;;;;;;10.46;77.46;100042.44;4960612;28;20033;-71
2023/04/15 06:07:35;;;;;;;9.95;1.10;;;;;;;10.44;77.66;100045.13;4968955;28;20114;-71
2023/04/15 06:10:02;;;;;;;10.10;1.02;;;;;;;10.48;77.36;100053.84;4977762;28;20035;-72
2023/04/15 06:12:28;;;;;;;13.10;1.30;;;;;;;10.50;78.08;100049.47;4978092;28;20109;-71
2023/04/15 06:14:53;;;;;;;13.33;1.40;;;;;;;10.49;77.88;100052.97;4977776;28;20102;-72
2023/04/15 06:17:18;;;;;;;13.43;1.30;;;;;;;10.52;77.99;100059.97;4965496;28;20075;-71
2023/04/15 06:19:44;;;;;;;8.73;1.20;;;;;;;10.52;78.08;100062.59;4958578;28;20074;-72
2023/04/15 06:22:09;;;;;;;10.20;1.30;;;;;;;10.52;77.77;100060.84;4958710;28;20031;-71
2023/04/15 06:24:35;;;;;;;10.80;1.10;;;;;;;10.56;77.64;100062.56;4958423;28;20500;-71
2023/04/15 06:27:02;;;;;;;11.03;1.20;;;;;;;10.56;77.98;100062.56;4960113;28;20038;-72
2023/04/15 06:29:27;;;;;;;13.75;1.50;;;;;;;10.59;77.84;100066.94;4973790;28;20027;-71
2023/04/15 06:31:53;;;;;;;14.77;1.55;;;;;;;10.59;77.96;100064.28;4958515;28;20086;-71
2023/04/15 06:34:18;;;;;;;11.53;1.37;;;;;;;10.61;77.96;100060.78;4958564;28;20037;-71
2023/04/15 06:36:44;;;;;;;11.40;1.73;;;;;;;10.65;78.05;100072.16;4957643;28;20392;-71
2023/04/15 06:39:09;;;;;;;7.80;1.55;;;;;;;10.63;77.86;100073.94;4958384;28;20480;-71
2023/04/15 06:41:35;;;;;;;9.27;0.83;;;;;;;10.67;78.17;100080.03;4977483;28;20030;-71
2023/04/15 06:44:00;;;;;;;14.53;1.57;;;;;;;10.66;78.13;100078.28;4966668;28;20041;-71
2023/04/15 06:46:26;;;;;;;12.73;1.20;;;;;;;10.68;78.47;100087.94;4974659;28;20115;-71
2023/04/15 06:48:51;;;;;;;12.03;1.33;;;;;;;10.66;78.08;100092.34;4979801;28;20506;-71
2023/04/15 06:51:17;;;;;;;12.63;1.67;;;;;;;10.66;78.83;100092.34;4981540;28;20050;-71
2023/04/15 06:53:42;;;;;;;7.20;0.67;;;;;;;10.68;78.68;100092.31;4976851;28;20034;-71
2023/04/15 06:56:08;;;;;;;8.48;1.00;;;;;;;10.65;78.95;100102.88;4967426;28;20035;-71
2023/04/15 06:58:34;;;;;;;12.10;1.40;;;;;;;10.65;78.97;100123.94;4970132;28;20055;-71
2023/04/15 07:01:00;;;;;;;7.18;0.70;;;;;;;10.57;78.87;100127.50;4971865;28;20031;-71
2023/04/15 07:03:25;;;;;;;7.90;0.57;;;;;;;10.50;79.04;100128.44;4965396;28;20046;-71
2023/04/15 07:05:51;;;;;;;4.40;0.50;;;;;;;10.42;78.65;100132.88;4981083;28;20027;-71
2023/04/15 07:08:18;;;;;;;5.07;0.55;;;;;;;10.27;79.23;100134.69;4980736;28;20050;-71
2023/04/15 07:10:46;;;;;;;7.40;0.70;;;;;;;10.25;79.06;100140.81;4975187;28;20069;-71
2023/04/15 07:13:11;;;;;;;3.70;0.43;;;;;;;10.20;79.27;100148.72;4968920;28;20039;-71
2023/04/15 07:15:37;;;;;;;7.65;0.63;;;;;;;10.21;79.10;100150.47;5003463;28;20061;-76
2023/04/15 07:18:02;;;;;;;5.60;0.70;;;;;;;10.24;79.36;100154.88;4979228;28;20570;-75
2023/04/15 07:20:27;;;;;;;7.63;0.60;;;;;;;10.27;79.16;100149.59;4975642;28;20069;-77
2023/04/15 07:22:53;;;;;;;6.53;1.20;;;;;;;10.27;79.12;100150.47;4974547;28;20086;-71
2023/04/15 07:25:19;;;;;;;5.70;1.00;;;;;;;10.27;79.15;100155.72;4970780;28;20038;-71
2023/04/15 07:27:44;;;;;;;5.87;1.00;;;;;;;10.27;78.75;100161.00;4974487;28;20034;-69
2023/04/15 07:30:11;;;;;;;7.80;1.30;;;;;;;10.29;79.03;100164.50;4964290;28;20267;-71
2023/04/15 07:32:36;;;;;;;8.93;1.00;;;;;;;10.31;78.83;100168.00;4961146;28;20074;-74
2023/04/15 07:35:02;;;;;;;8.23;0.83;;;;;;;10.33;78.87;100160.97;4960070;28;20066;-74
2023/04/15 07:37:28;;;;;;;10.40;1.38;;;;;;;10.35;78.49;100163.56;4960222;28;20388;-76
2023/04/15 07:39:54;;;;;;;11.33;0.90;;;;;;;10.39;78.72;100164.44;4966505;28;20036;-74
2023/04/15 07:42:19;;;;;;;5.18;0.80;;;;;;;10.45;78.46;100167.06;4980547;28;20027;-75
2023/04/15 07:44:44;;;;;;;11.97;0.93;;;;;;;10.45;78.45;100161.81;4973640;28;20492;-75
2023/04/15 07:47:10;;;;;;;5.67;0.90;;;;;;;10.54;78.24;100155.63;4978556;28;20046;-74
2023/04/15 07:49:36;;;;;;;9.90;1.10;;;;;;;10.61;78.16;100171.38;4980242;28;20494;-69
2023/04/15 07:52:01;;;;;;;11.50;1.60;;;;;;;10.69;78.28;100165.19;4965208;28;20043;-69
2023/04/15 07:54:27;;;;;;;8.60;0.90;;;;;;;10.76;78.02;100166.91;4960860;28;20035;-69
2023/04/15 07:56:52;;;;;;;4.68;0.70;;;;;;;10.74;77.27;100168.69;4973146;28;20041;-69
2023/04/15 07:59:18;;;;;;;9.33;1.20;;;;;;;10.68;76.77;100169.59;4969689;28;20034;-71
2023/04/15 08:01:43;;;;;;;8.03;0.80;;;;;;;10.65;77.37;100171.34;4969049;28;20130;-70
2023/04/15 08:04:09;;;;;;;7.45;1.00;;;;;;;10.66;77.59;100179.25;4976758;28;20049;-70
2023/04/15 08:06:35;;;;;;;10.93;1.20;;;;;;;10.65;77.45;100181.88;4973113;28;20047;-70
2023/04/15 08:09:01;;;;;;;9.95;0.95;;;;;;;10.64;77.09;100175.75;4973554;28;20027;-70
2023/04/15 08:11:26;;;;;;;7.30;0.70;;;;;;;10.69;77.03;100179.22;4970569;28;20050;-69
2023/04/15 08:13:52;;;;;;;10.02;0.77;;;;;;;10.77;76.88;100187.09;4973007;28;20045;-69
2023/04/15 08:16:26;;;;;;;11.40;1.17;;;;;;;10.85;76.79;100185.28;4975612;28;20651;-69
2023/04/15 08:18:54;;;;;;;11.18;1.27;;;;;;;10.95;76.57;100179.94;4960548;28;20046;-69
2023/04/15 08:21:20;;;;;;;9.35;0.93;;;;;;;10.95;75.79;100172.91;4978461;28;20034;-69
2023/04/15 08:23:48;;;;;;;11.00;1.27;;;;;;;10.97;75.53;100183.44;4976263;28;20027;-69
2023/04/15 08:26:13;;;;;;;9.18;0.80;;;;;;;11.00;75.51;100183.44;4976120;28;20038;-69
2023/04/15 08:28:40;;;;;;;9.63;1.10;;;;;;;11.03;75.40;100184.25;4979217;28;20034;-69
2023/04/15 08:31:06;;;;;;;9.57;1.08;;;;;;;11.13;75.31;100185.06;4974366;28;20410;-69
2023/04/15 08:33:31;;;;;;;9.30;0.90;;;;;;;11.18;75.29;100182.41;4977834;28;20049;-69
2023/04/15 08:35:57;;;;;;;8.50;1.03;;;;;;;11.16;74.40;100190.31;4977860;28;20309;-69
2023/04/15 08:38:22;;;;;;;12.53;1.50;;;;;;;11.19;74.78;100189.44;4978516;28;20054;-69
2023/04/15 08:40:48;;;;;;;11.27;0.80;;;;;;;11.29;74.68;100190.22;4979146;28;20030;-70
2023/04/15 08:43:26;;;;;;;9.47;0.90;;;;;;;11.44;74.81;100191.88;4975365;28;20833;-69
2023/04/15 08:45:52;;;;;;;12.20;1.70;;;;;;;11.67;74.38;100191.63;4974151;28;20046;-70
2023/04/15 08:48:18;;;;;;;9.32;1.13;;;;;;;11.89;73.32;100204.63;4965582;28;20050;-70
2023/04/15 08:50:45;;;;;;;11.37;1.57;;;;;;;12.07;73.75;100200.97;4960041;28;20027;-70
2023/04/15 08:53:11;;;;;;;10.07;1.70;;;;;;;12.29;73.19;100198.91;4959747;28;20354;-70
2023/04/15 08:55:42;;;;;;;9.45;1.23;;;;;;;12.50;72.46;100194.25;4959183;28;20139;-70
2023/04/15 08:58:09;;;;;;;11.05;1.35;;;;;;;12.73;72.45;100193.06;4959769;28;20086;-70
2023/04/15 09:00:34;;;;;;;9.27;1.02;;;;;;;12.94;72.02;100202.44;4959499;28;20492;-70
2023/04/15 09:03:00;;;;;;;17.60;1.47;;;;;;;13.00;70.89;100194.41;4973294;28;20045;-70
2023/04/15 09:05:26;;;;;;;17.77;1.98;;;;;;;13.08;69.54;100212.81;4970832;28;20664;-70
2023/04/15 09:07:51;;;;;;;11.00;1.47;;;;;;;13.11;67.86;100196.91;4971963;28;20074;-71
2023/04/15 09:10:17;;;;;;;7.37;1.10;;;;;;;13.22;68.13;100207.31;4978518;28;20497;-70
2023/04/15 09:12:43;;;;;;;10.15;1.48;;;;;;;13.12;67.33;100216.28;4978538;28;20031;-70
2023/04/15 09:15:11;;;;;;;9.03;1.40;;;;;;;12.99;66.77;100208.53;4977292;28;20031;-70
2023/04/15 09:17:42;;;;;;;9.75;1.38;;;;;;;12.90;66.45;100213.97;4964050;28;20020;-70
2023/04/15 09:20:13;;;;;;;10.73;1.40;;;;;;;12.97;66.67;100220.06;4959538;28;20484;-70
2023/04/15 09:22:39;;;;;;;9.45;1.40;;;;;;;13.03;67.07;100215.56;4959344;28;20392;-70
2023/04/15 09:25:27;;;;;;;10.85;1.52;;;;;;;13.14;66.32;100204.81;4957773;28;20035;-70
2023/04/15 09:28:02;;;;;;;12.50;1.60;;;;;;;13.24;65.65;100209.94;4966797;28;20035;-70
2023/04/15 09:30:28;;;;;;;7.20;0.85;;;;;;;13.29;65.83;100216.91;4966748;28;20496;-70
2023/04/15 09:32:55;;;;;;;10.65;1.30;;;;;;;13.51;65.27;100221.00;4968869;28;20097;-70
2023/04/15 09:35:22;;;;;;;11.45;1.30;;;;;;;13.69;64.52;100210.09;4978633;28;20030;-70
2023/04/15 09:37:49;;;;;;;11.88;1.40;;;;;;;13.91;63.16;100215.84;4978319;28;20062;-71
2023/04/15 09:40:30;;;;;;;12.33;1.47;;;;;;;13.83;61.35;100216.91;4969576;28;20435;-70
2023/04/15 09:42:56;;;;;;;11.40;1.30;;;;;;;13.97;63.19;100227.22;4959687;28;20035;-70
2023/04/15 09:45:22;;;;;;;11.13;1.35;;;;;;;14.11;62.61;100234.94;4961703;28;20038;-70
2023/04/15 09:47:47;;;;;;;8.33;1.03;;;;;;;14.05;60.90;100228.84;4958896;28;20086;-70
2023/04/15 09:50:14;;;;;;;8.73;1.20;;;;;;;13.99;61.27;100236.91;4958991;28;20522;-70
2023/04/15 09:52:43;;;;;;;8.77;1.17;;;;;;;14.14;61.62;100226.94;4958915;28;20027;-70
2023/04/15 09:55:09;;;;;;;7.45;0.98;;;;;;;14.24;61.35;100225.84;4957317;28;20049;-70
2023/04/15 09:57:36;;;;;;;10.73;1.40;;;;;;;14.21;61.23;100215.31;4958948;28;20395;-70
2023/04/15 10:00:07;;;;;;;12.30;1.60;;;;;;;14.25;60.56;100214.34;4958657;28;20114;-70
2023/04/15 10:02:32;;;;;;;9.35;1.50;;;;;;;14.32;58.41;100215.94;4968809;28;20031;-70
2023/04/15 10:04:59;;;;;;;7.20;1.60;;;;;;;14.44;58.57;100203.38;4961919;28;20027;-70
2023/04/15 10:07:25;;;;;;;8.95;1.30;;;;;;;14.60;58.23;100210.09;4967968;28;20026;-71
2023/04/15 10:09:50;;;;;;;9.85;1.30;;;;;;;14.76;55.75;100209.78;4977932;28;20072;-71
2023/04/15 10:12:17;;;;;;;12.30;1.30;;;;;;;14.92;55.93;100216.47;4978158;28;20388;-71
2023/04/15 10:14:43;;;;;;;9.68;1.20;;;;;;;15.08;56.00;100213.47;4977908;28;20138;-71
2023/04/15 10:17:13;;;;;;;10.50;1.40;;;;;;;15.25;55.49;100213.06;4966798;28;20055;-70
2023/04/15 10:19:40;;;;;;;7.55;1.20;;;;;;;15.42;53.53;100217.94;4957283;28;20114;-70
2023/04/15 10:22:06;;;;;;;9.48;1.02;;;;;;;15.38;51.37;100213.63;4958620;28;20027;-71
2023/04/15 10:24:32;;;;;;;10.37;1.60;;;;;;;15.26;51.47;100213.94;4961909;28;20055;-70
2023/04/15 10:26:58;;;;;;;9.10;1.20;;;;;;;15.30;52.50;100216.47;4963380;28;20027;-70
2023/04/15 10:29:26;;;;;;;8.10;1.73;;;;;;;15.41;52.33;100217.97;4978055;28;20019;-71
2023/04/15 10:31:54;;;;;;;9.45;1.10;;;;;;;15.59;52.94;100220.19;4961053;28;20027;-71
2023/04/15 10:34:20;;;;;;;7.90;0.90;;;;;;;15.73;52.46;100232.22;4962415;28;20114;-70
2023/04/15 10:36:46;;;;;;;9.40;1.40;;;;;;;15.74;50.16;100237.47;4962345;28;20066;-70
2023/04/15 10:39:33;;;;;;;8.55;1.15;;;;;;;15.75;49.52;100228.59;4962815;28;20051;-70
2023/04/15 10:42:18;;;;;;;9.15;1.35;;;;;;;15.76;48.92;100225.03;4981546;28;20106;-71
2023/04/15 10:44:50;;;;;;;7.63;1.10;;;;;;;15.82;47.94;100231.13;4981661;28;20035;-71
2023/04/15 10:47:18;;;;;;;9.73;1.10;;;;;;;15.91;48.03;100229.13;4981329;28;20049;-71
2023/04/15 10:49:49;;;;;;;7.25;1.20;;;;;;;15.99;47.25;100220.94;4981555;28;20030;-71
2023/04/15 10:52:16;;;;;;;8.57;1.05;;;;;;;16.23;48.98;100222.97;4980114;28;20034;-71
2023/04/15 10:54:42;;;;;;;11.25;1.10;;;;;;;16.42;49.58;100225.97;4981127;28;20479;-71
2023/04/15 10:57:14;;;;;;;8.20;1.50;;;;;;;16.34;48.88;100224.41;4981166;28;20019;-70
2023/04/15 10:59:57;;;;;;;8.70;1.40;;;;;;;16.05;48.43;100235.84;4981165;28;20117;-70
2023/04/15 11:02:51;;;;;;;7.70;1.30;;;;;;;15.90;49.06;100232.66;4972661;28;20085;-70
2023/04/15 11:05:17;;;;;;;11.60;1.27;;;;;;;16.02;49.86;100220.84;4961837;28;20027;-70
2023/04/15 11:07:43;;;;;;;9.13;0.85;;;;;;;16.19;48.54;100222.16;4971917;28;20026;-71
2023/04/15 11:10:19;;;;;;;6.80;0.80;;;;;;;16.39;47.24;100223.38;4980882;28;20026;-70
2023/04/15 11:12:46;;;;;;;8.88;1.00;;;;;;;16.58;46.73;100226.38;4981050;28;20023;-71
2023/04/15 11:15:37;;;;;;;7.67;1.17;;;;;;;16.70;46.96;100228.69;4981023;28;20055;-71
2023/04/15 11:18:13;;;;;;;7.18;1.33;;;;;;;17.02;45.14;100228.66;4961533;28;20059;-71
2023/04/15 11:20:41;;;;;;;8.10;1.20;;;;;;;17.13;44.44;100226.50;4961626;28;20059;-71